sensor_id;sensor_type;location;lat;lon;timestamp;pressure;altitude;pressure_sealevel;temperature;humidity
17362;BME280;8798;51.938;4.348;2024-01-15T00:00:58;100420.31;;;3.93;97.82
17362;BME280;8798;51.938;4.348;2024-01-15T00:03:26;100434.47;;;3.93;96.69
17362;BME280;8798;51.938;4.348;2024-01-15T00:05:54;100434.56;;;3.92;97.13
17362;BME280;8798;51.938;4.348;2024-01-15T00:08:24;100417.06;;;3.89;96.94
17362;BME280;8798;51.938;4.348;2024-01-15T00:10:52;100412.69;;;3.88;96.93
17362;BME280;8798;51.938;4.348;2024-01-15T00:13:20;100411.03;;;3.87;96.81
17362;BME280;8798;51.938;4.348;2024-01-15T00:15:48;100402.22;;;3.86;97.48
17362;BME280;8798;51.938;4.348;2024-01-15T00:18:16;100408.38;;;3.87;96.75
17362;BME280;8798;51.938;4.348;2024-01-15T00:20:44;100418.88;;;3.88;96.99
17362;BME280;8798;51.938;4.348;2024-01-15T00:23:12;100418.75;;;3.90;96.93
17362;BME280;8798;51.938;4.348;2024-01-15T00:25:41;100434.56;;;3.92;97.32
17362;BME280;8798;51.938;4.348;2024-01-15T00:28:09;100439.06;;;3.91;97.12
17362;BME280;8798;51.938;4.348;2024-01-15T00:30:37;100438.06;;;3.92;97.09
17362;BME280;8798;51.938;4.348;2024-01-15T00:33:05;100426.72;;;3.90;97.33
17362;BME280;8798;51.938;4.348;2024-01-15T00:35:34;100426.84;;;3.88;97.09
17362;BME280;8798;51.938;4.348;2024-01-15T00:38:03;100423.31;;;3.88;96.95
17362;BME280;8798;51.938;4.348;2024-01-15T00:40:31;100407.78;;;3.83;96.78
17362;BME280;8798;51.938;4.348;2024-01-15T00:43:00;100394.59;;;3.82;96.74
17362;BME280;8798;51.938;4.348;2024-01-15T00:45:28;100377.09;;;3.79;97.07
17362;BME280;8798;51.938;4.348;2024-01-15T00:47:57;100380.00;;;3.76;96.59
17362;BME280;8798;51.938;4.348;2024-01-15T00:50:26;100371.28;;;3.74;97.07
17362;BME280;8798;51.938;4.348;2024-01-15T00:52:54;100359.94;;;3.72;96.65
17362;BME280;8798;51.938;4.348;2024-01-15T00:55:22;100362.59;;;3.72;96.76
17362;BME280;8798;51.938;4.348;2024-01-15T00:57:50;100363.56;;;3.71;97.18
17362;BME280;8798;51.938;4.348;2024-01-15T01:00:19;100360.06;;;3.71;97.10
17362;BME280;8798;51.938;4.348;2024-01-15T01:02:47;100367.91;;;3.72;96.87
17362;BME280;8798;51.938;4.348;2024-01-15T01:05:15;100358.25;;;3.71;96.84
17362;BME280;8798;51.938;4.348;2024-01-15T01:07:43;100359.22;;;3.70;96.95
17362;BME280;8798;51.938;4.348;2024-01-15T01:10:11;100364.53;;;3.70;97.07
17362;BME280;8798;51.938;4.348;2024-01-15T01:12:39;100357.53;;;3.69;96.83
17362;BME280;8798;51.938;4.348;2024-01-15T01:15:08;100356.69;;;3.69;96.72
17362;BME280;8798;51.938;4.348;2024-01-15T01:17:37;100348.00;;;3.66;96.73
17362;BME280;8798;51.938;4.348;2024-01-15T01:20:06;100356.81;;;3.67;96.65
17362;BME280;8798;51.938;4.348;2024-01-15T01:22:36;100353.31;;;3.66;96.75
17362;BME280;8798;51.938;4.348;2024-01-15T01:25:05;100358.47;;;3.68;96.93
17362;BME280;8798;51.938;4.348;2024-01-15T01:27:33;100381.19;;;3.72;97.13
17362;BME280;8798;51.938;4.348;2024-01-15T01:30:01;100392.41;;;3.76;97.19
17362;BME280;8798;51.938;4.348;2024-01-15T01:32:30;100405.47;;;3.79;97.06
17362;BME280;8798;51.938;4.348;2024-01-15T01:35:00;100411.63;;;3.79;96.94
17362;BME280;8798;51.938;4.348;2024-01-15T01:37:28;100398.44;;;3.78;97.21
17362;BME280;8798;51.938;4.348;2024-01-15T01:39:56;100390.63;;;3.76;97.05
17362;BME280;8798;51.938;4.348;2024-01-15T01:42:24;100379.38;;;3.73;97.34
17362;BME280;8798;51.938;4.348;2024-01-15T01:44:52;100375.97;;;3.71;97.24
17362;BME280;8798;51.938;4.348;2024-01-15T01:47:20;100363.09;;;3.66;97.14
17362;BME280;8798;51.938;4.348;2024-01-15T01:49:48;100344.72;;;3.63;97.15
17362;BME280;8798;51.938;4.348;2024-01-15T01:52:17;100337.84;;;3.60;97.04
17362;BME280;8798;51.938;4.348;2024-01-15T01:54:45;100344.00;;;3.61;97.12
17362;BME280;8798;51.938;4.348;2024-01-15T01:57:14;100334.34;;;3.60;96.91
17362;BME280;8798;51.938;4.348;2024-01-15T01:59:43;100323.84;;;3.58;96.95
17362;BME280;8798;51.938;4.348;2024-01-15T02:02:11;100317.81;;;3.56;96.51
17362;BME280;8798;51.938;4.348;2024-01-15T02:04:40;100322.25;;;3.56;96.84
17362;BME280;8798;51.938;4.348;2024-01-15T02:07:08;100323.25;;;3.55;97.09
17362;BME280;8798;51.938;4.348;2024-01-15T02:09:38;100323.25;;;3.55;96.81
17362;BME280;8798;51.938;4.348;2024-01-15T02:12:06;100327.56;;;3.56;96.93
17362;BME280;8798;51.938;4.348;2024-01-15T02:14:34;100328.31;;;3.58;97.02
17362;BME280;8798;51.938;4.348;2024-01-15T02:17:03;100333.63;;;3.58;97.17
17362;BME280;8798;51.938;4.348;2024-01-15T02:19:30;100336.50;;;3.55;96.99
17362;BME280;8798;51.938;4.348;2024-01-15T02:21:59;100323.34;;;3.53;97.09
17362;BME280;8798;51.938;4.348;2024-01-15T02:24:28;100306.00;;;3.49;97.20
17362;BME280;8798;51.938;4.348;2024-01-15T02:26:56;100291.25;;;3.45;97.31
17362;BME280;8798;51.938;4.348;2024-01-15T02:29:24;100283.66;;;3.40;97.18
17362;BME280;8798;51.938;4.348;2024-01-15T02:31:52;100259.28;;;3.35;97.34
17362;BME280;8798;51.938;4.348;2024-01-15T02:34:20;100246.25;;;3.32;97.22
17362;BME280;8798;51.938;4.348;2024-01-15T02:36:48;100251.56;;;3.32;96.56
17362;BME280;8798;51.938;4.348;2024-01-15T02:39:16;100247.19;;;3.31;97.02
17362;BME280;8798;51.938;4.348;2024-01-15T02:41:46;100237.56;;;3.30;96.62
17362;BME280;8798;51.938;4.348;2024-01-15T02:44:13;100242.97;;;3.29;96.71
17362;BME280;8798;51.938;4.348;2024-01-15T02:46:41;100235.00;;;3.29;97.26
17362;BME280;8798;51.938;4.348;2024-01-15T02:49:09;100236.81;;;3.28;96.85
17362;BME280;8798;51.938;4.348;2024-01-15T02:51:37;100250.84;;;3.30;96.52
17362;BME280;8798;51.938;4.348;2024-01-15T02:54:05;100263.84;;;3.33;97.62
17362;BME280;8798;51.938;4.348;2024-01-15T02:56:33;100279.56;;;3.36;97.28
17362;BME280;8798;51.938;4.348;2024-01-15T02:59:03;100255.31;;;3.30;97.08
17362;BME280;8798;51.938;4.348;2024-01-15T03:01:31;100222.34;;;3.21;97.11
17362;BME280;8798;51.938;4.348;2024-01-15T03:03:59;100167.72;;;3.07;97.29
17362;BME280;8798;51.938;4.348;2024-01-15T03:06:27;100134.81;;;2.98;97.27
17362;BME280;8798;51.938;4.348;2024-01-15T03:08:55;100118.31;;;2.95;96.54
17362;BME280;8798;51.938;4.348;2024-01-15T03:11:23;100107.31;;;2.88;97.19
17362;BME280;8798;51.938;4.348;2024-01-15T03:13:51;100102.03;;;2.88;96.86
17362;BME280;8798;51.938;4.348;2024-01-15T03:16:20;100106.47;;;2.88;97.15
17362;BME280;8798;51.938;4.348;2024-01-15T03:18:48;100120.47;;;2.90;97.21
17362;BME280;8798;51.938;4.348;2024-01-15T03:21:16;100133.50;;;2.93;96.98
17362;BME280;8798;51.938;4.348;2024-01-15T03:23:45;100142.16;;;2.95;96.77
17362;BME280;8798;51.938;4.348;2024-01-15T03:26:13;100157.94;;;2.96;97.44
17362;BME280;8798;51.938;4.348;2024-01-15T03:28:41;100162.31;;;2.97;96.62
17362;BME280;8798;51.938;4.348;2024-01-15T03:31:08;100151.81;;;2.96;97.49
17362;BME280;8798;51.938;4.348;2024-01-15T03:33:38;100160.75;;;2.95;96.80
17362;BME280;8798;51.938;4.348;2024-01-15T03:36:07;100159.75;;;2.96;97.21
17362;BME280;8798;51.938;4.348;2024-01-15T03:38:39;100178.22;;;2.97;96.80
17362;BME280;8798;51.938;4.348;2024-01-15T03:41:07;100196.28;;;3.04;96.63
17362;BME280;8798;51.938;4.348;2024-01-15T03:43:35;100223.31;;;3.09;97.18
17362;BME280;8798;51.938;4.348;2024-01-15T03:46:03;100241.53;;;3.13;96.57
17362;BME280;8798;51.938;4.348;2024-01-15T03:48:32;100251.06;;;3.16;96.54
17362;BME280;8798;51.938;4.348;2024-01-15T03:51:01;100259.75;;;3.18;96.91
17362;BME280;8798;51.938;4.348;2024-01-15T03:53:29;100263.25;;;3.18;97.00
17362;BME280;8798;51.938;4.348;2024-01-15T03:55:57;100272.03;;;3.19;97.20
17362;BME280;8798;51.938;4.348;2024-01-15T03:58:25;100276.41;;;3.20;96.71
17362;BME280;8798;51.938;4.348;2024-01-15T04:00:53;100274.69;;;3.19;96.78
17362;BME280;8798;51.938;4.348;2024-01-15T04:03:22;100261.66;;;3.16;97.29
17362;BME280;8798;51.938;4.348;2024-01-15T04:05:50;100258.28;;;3.14;96.53
17362;BME280;8798;51.938;4.348;2024-01-15T04:08:19;100257.34;;;3.15;97.23
17362;BME280;8798;51.938;4.348;2024-01-15T04:10:48;100236.56;;;3.09;96.98
17362;BME280;8798;51.938;4.348;2024-01-15T04:13:15;100224.53;;;3.05;97.29
17362;BME280;8798;51.938;4.348;2024-01-15T04:15:43;100217.53;;;3.04;96.76
17362;BME280;8798;51.938;4.348;2024-01-15T04:18:11;100213.44;;;2.99;97.21
17362;BME280;8798;51.938;4.348;2024-01-15T04:20:40;100188.22;;;2.94;96.87
17362;BME280;8798;51.938;4.348;2024-01-15T04:23:08;100170.88;;;2.90;96.46
17362;BME280;8798;51.938;4.348;2024-01-15T04:25:37;100155.31;;;2.85;97.05
17362;BME280;8798;51.938;4.348;2024-01-15T04:28:08;100154.56;;;2.83;97.18
17362;BME280;8798;51.938;4.348;2024-01-15T04:30:36;100155.41;;;2.84;97.25
17362;BME280;8798;51.938;4.348;2024-01-15T04:33:04;100165.19;;;2.83;96.71
17362;BME280;8798;51.938;4.348;2024-01-15T04:35:33;100153.84;;;2.81;97.17
17362;BME280;8798;51.938;4.348;2024-01-15T04:38:01;100149.53;;;2.80;97.07
17362;BME280;8798;51.938;4.348;2024-01-15T04:40:29;100148.78;;;2.78;96.38
17362;BME280;8798;51.938;4.348;2024-01-15T04:42:59;100146.88;;;2.80;97.11
17362;BME280;8798;51.938;4.348;2024-01-15T04:45:27;100165.28;;;2.82;97.18
17362;BME280;8798;51.938;4.348;2024-01-15T04:47:56;100180.00;;;2.86;97.40
17362;BME280;8798;51.938;4.348;2024-01-15T04:50:24;100211.38;;;2.92;97.20
17362;BME280;8798;51.938;4.348;2024-01-15T04:52:52;100211.25;;;2.93;96.87
17362;BME280;8798;51.938;4.348;2024-01-15T04:55:20;100202.56;;;2.91;96.98
17362;BME280;8798;51.938;4.348;2024-01-15T04:57:48;100189.66;;;2.87;96.86
17362;BME280;8798;51.938;4.348;2024-01-15T05:00:18;100177.47;;;2.84;96.64
17362;BME280;8798;51.938;4.348;2024-01-15T05:02:46;100137.56;;;2.74;96.60
17362;BME280;8798;51.938;4.348;2024-01-15T05:05:14;100109.97;;;2.66;97.09
17362;BME280;8798;51.938;4.348;2024-01-15T05:07:42;100080.44;;;2.59;97.38
17362;BME280;8798;51.938;4.348;2024-01-15T05:10:10;100047.66;;;2.49;96.77
17362;BME280;8798;51.938;4.348;2024-01-15T05:12:38;100008.78;;;2.38;96.96
17362;BME280;8798;51.938;4.348;2024-01-15T05:15:07;100017.66;;;2.37;96.66
17362;BME280;8798;51.938;4.348;2024-01-15T05:17:37;100015.00;;;2.37;97.39
17362;BME280;8798;51.938;4.348;2024-01-15T05:20:06;100023.69;;;2.39;96.93
17362;BME280;8798;51.938;4.348;2024-01-15T05:22:35;100025.50;;;2.39;96.51
17362;BME280;8798;51.938;4.348;2024-01-15T05:25:04;100007.19;;;2.35;96.66
17362;BME280;8798;51.938;4.348;2024-01-15T05:27:32;100004.91;;;2.31;96.56
17362;BME280;8798;51.938;4.348;2024-01-15T05:30:00;99978.03;;;2.24;97.04
17362;BME280;8798;51.938;4.348;2024-01-15T05:32:28;99970.34;;;2.21;97.17
17362;BME280;8798;51.938;4.348;2024-01-15T05:34:58;99967.81;;;2.20;96.74
17362;BME280;8798;51.938;4.348;2024-01-15T05:37:26;99961.78;;;2.18;96.52
17362;BME280;8798;51.938;4.348;2024-01-15T05:39:54;99969.72;;;2.18;96.78
17362;BME280;8798;51.938;4.348;2024-01-15T05:42:22;99966.38;;;2.15;97.46
17362;BME280;8798;51.938;4.348;2024-01-15T05:44:50;99976.72;;;2.19;96.63
17362;BME280;8798;51.938;4.348;2024-01-15T05:47:18;99996.00;;;2.21;96.98
17362;BME280;8798;51.938;4.348;2024-01-15T05:49:46;100007.19;;;2.24;96.51
17362;BME280;8798;51.938;4.348;2024-01-15T05:52:16;100029.00;;;2.28;97.54
17362;BME280;8798;51.938;4.348;2024-01-15T05:54:44;100040.19;;;2.31;96.57
17362;BME280;8798;51.938;4.348;2024-01-15T05:57:12;100068.25;;;2.34;96.90
17362;BME280;8798;51.938;4.348;2024-01-15T05:59:40;100072.47;;;2.36;97.49
17362;BME280;8798;51.938;4.348;2024-01-15T06:02:08;100082.13;;;2.38;96.60
17362;BME280;8798;51.938;4.348;2024-01-15T06:04:36;100087.28;;;2.39;97.34
17362;BME280;8798;51.938;4.348;2024-01-15T06:07:04;100093.31;;;2.41;96.80
17362;BME280;8798;51.938;4.348;2024-01-15T06:09:33;100118.50;;;2.47;97.01
17362;BME280;8798;51.938;4.348;2024-01-15T06:12:01;100132.47;;;2.49;96.99
17362;BME280;8798;51.938;4.348;2024-01-15T06:14:29;100103.09;;;2.41;96.84
17362;BME280;8798;51.938;4.348;2024-01-15T06:16:59;100049.31;;;2.27;96.57
17362;BME280;8798;51.938;4.348;2024-01-15T06:19:27;100011.28;;;2.17;97.16
17362;BME280;8798;51.938;4.348;2024-01-15T06:21:56;100006.94;;;2.16;96.61
17362;BME280;8798;51.938;4.348;2024-01-15T06:24:24;100012.25;;;2.16;97.39
17362;BME280;8798;51.938;4.348;2024-01-15T06:26:53;100028.72;;;2.20;96.70
17362;BME280;8798;51.938;4.348;2024-01-15T06:29:22;100043.69;;;2.21;97.13
17362;BME280;8798;51.938;4.348;2024-01-15T06:31:50;100042.84;;;2.20;96.94
17362;BME280;8798;51.938;4.348;2024-01-15T06:34:19;100054.28;;;2.21;96.64
17362;BME280;8798;51.938;4.348;2024-01-15T06:36:47;100058.59;;;2.22;96.47
17362;BME280;8798;51.938;4.348;2024-01-15T06:39:15;100069.81;;;2.25;96.67
17362;BME280;8798;51.938;4.348;2024-01-15T06:41:43;100082.00;;;2.28;96.29
17362;BME280;8798;51.938;4.348;2024-01-15T06:44:13;100111.63;;;2.33;96.99
17362;BME280;8798;51.938;4.348;2024-01-15T06:46:42;100133.31;;;2.38;97.15
17362;BME280;8798;51.938;4.348;2024-01-15T06:49:10;100158.59;;;2.42;96.73
17362;BME280;8798;51.938;4.348;2024-01-15T06:51:38;100166.34;;;2.45;97.02
17362;BME280;8798;51.938;4.348;2024-01-15T06:54:06;100185.38;;;2.50;97.05
17362;BME280;8798;51.938;4.348;2024-01-15T06:56:34;100217.53;;;2.57;96.79
17362;BME280;8798;51.938;4.348;2024-01-15T06:59:02;100234.81;;;2.63;97.26
17362;BME280;8798;51.938;4.348;2024-01-15T07:01:31;100245.28;;;2.64;97.22
17362;BME280;8798;51.938;4.348;2024-01-15T07:03:59;100244.44;;;2.64;97.06
17362;BME280;8798;51.938;4.348;2024-01-15T07:06:28;100237.66;;;2.59;97.13
17362;BME280;8798;51.938;4.348;2024-01-15T07:08:57;100228.03;;;2.58;97.08
17362;BME280;8798;51.938;4.348;2024-01-15T07:11:25;100228.16;;;2.57;96.75
17362;BME280;8798;51.938;4.348;2024-01-15T07:13:53;100225.50;;;2.57;97.33
17362;BME280;8798;51.938;4.348;2024-01-15T07:16:21;100219.34;;;2.56;96.49
17362;BME280;8798;51.938;4.348;2024-01-15T07:19:05;100209.84;;;2.54;96.99
17362;BME280;8798;51.938;4.348;2024-01-15T07:21:33;100211.66;;;2.53;97.22
17362;BME280;8798;51.938;4.348;2024-01-15T07:24:01;100215.13;;;2.54;97.08
17362;BME280;8798;51.938;4.348;2024-01-15T07:26:32;100213.47;;;2.53;96.62
17362;BME280;8798;51.938;4.348;2024-01-15T07:29:00;100222.84;;;2.57;97.58
17362;BME280;8798;51.938;4.348;2024-01-15T07:31:28;100243.72;;;2.62;96.57
17362;BME280;8798;51.938;4.348;2024-01-15T07:33:56;100270.63;;;2.68;96.77
17362;BME280;8798;51.938;4.348;2024-01-15T07:36:26;100288.00;;;2.72;97.37
17362;BME280;8798;51.938;4.348;2024-01-15T07:38:54;100306.22;;;2.77;96.75
17362;BME280;8798;51.938;4.348;2024-01-15T07:41:22;100330.56;;;2.82;97.26
17362;BME280;8798;51.938;4.348;2024-01-15T07:43:50;100345.16;;;2.88;96.72
17362;BME280;8798;51.938;4.348;2024-01-15T07:46:18;100369.66;;;2.91;97.32
17362;BME280;8798;51.938;4.348;2024-01-15T07:48:46;100372.19;;;2.93;96.81
17362;BME280;8798;51.938;4.348;2024-01-15T07:51:14;100369.53;;;2.93;97.38
17362;BME280;8798;51.938;4.348;2024-01-15T07:53:44;100369.53;;;2.93;96.55
17362;BME280;8798;51.938;4.348;2024-01-15T07:56:12;100376.53;;;2.94;97.28
17362;BME280;8798;51.938;4.348;2024-01-15T07:58:40;100378.25;;;2.95;96.74
17362;BME280;8798;51.938;4.348;2024-01-15T08:01:08;100368.56;;;2.94;97.23
17362;BME280;8798;51.938;4.348;2024-01-15T08:03:36;100359.91;;;2.92;96.85
17362;BME280;8798;51.938;4.348;2024-01-15T08:06:05;100351.31;;;2.88;97.23
17362;BME280;8798;51.938;4.348;2024-01-15T08:08:36;100334.81;;;2.85;97.46
17362;BME280;8798;51.938;4.348;2024-01-15T08:11:06;100326.22;;;2.81;97.49
17362;BME280;8798;51.938;4.348;2024-01-15T08:13:34;100314.75;;;2.80;96.74
17362;BME280;8798;51.938;4.348;2024-01-15T08:16:02;100303.56;;;2.77;97.41
17362;BME280;8798;51.938;4.348;2024-01-15T08:18:30;100291.47;;;2.73;96.67
17362;BME280;8798;51.938;4.348;2024-01-15T08:20:58;100287.13;;;2.72;97.13
17362;BME280;8798;51.938;4.348;2024-01-15T08:23:26;100283.75;;;2.70;97.31
17362;BME280;8798;51.938;4.348;2024-01-15T08:25:58;100270.50;;;2.70;97.28
17362;BME280;8798;51.938;4.348;2024-01-15T08:28:27;100271.44;;;2.69;96.75
17362;BME280;8798;51.938;4.348;2024-01-15T08:30:55;100271.44;;;2.69;96.89
17362;BME280;8798;51.938;4.348;2024-01-15T08:33:23;100274.94;;;2.69;96.70
17362;BME280;8798;51.938;4.348;2024-01-15T08:35:52;100282.06;;;2.69;96.93
17362;BME280;8798;51.938;4.348;2024-01-15T08:38:20;100269.78;;;2.68;96.87
17362;BME280;8798;51.938;4.348;2024-01-15T08:40:49;100277.59;;;2.69;97.42
17362;BME280;8798;51.938;4.348;2024-01-15T08:43:17;100292.41;;;2.72;96.32
17362;BME280;8798;51.938;4.348;2024-01-15T08:45:47;100296.66;;;2.74;97.26
17362;BME280;8798;51.938;4.348;2024-01-15T08:48:15;100297.53;;;2.75;97.13
17362;BME280;8798;51.938;4.348;2024-01-15T08:50:43;100308.97;;;2.75;96.86
17362;BME280;8798;51.938;4.348;2024-01-15T08:53:12;100292.22;;;2.75;96.71
17362;BME280;8798;51.938;4.348;2024-01-15T08:55:40;100306.22;;;2.77;96.82
17362;BME280;8798;51.938;4.348;2024-01-15T08:58:10;100327.19;;;2.80;96.52
17362;BME280;8798;51.938;4.348;2024-01-15T09:00:38;100369.66;;;2.91;97.53
17362;BME280;8798;51.938;4.348;2024-01-15T09:03:08;100394.66;;;3.00;96.73
17362;BME280;8798;51.938;4.348;2024-01-15T09:05:36;100427.00;;;3.05;96.71
17362;BME280;8798;51.938;4.348;2024-01-15T09:08:05;100458.34;;;3.11;96.98
17362;BME280;8798;51.938;4.348;2024-01-15T09:10:33;100473.00;;;3.17;97.37
17362;BME280;8798;51.938;4.348;2024-01-15T09:13:01;100480.72;;;3.20;97.19
17362;BME280;8798;51.938;4.348;2024-01-15T09:15:30;100485.06;;;3.21;96.86
17362;BME280;8798;51.938;4.348;2024-01-15T09:17:59;100474.56;;;3.19;97.17
17362;BME280;8798;51.938;4.348;2024-01-15T09:20:35;100484.13;;;3.22;97.08
17362;BME280;8798;51.938;4.348;2024-01-15T09:23:03;100498.97;;;3.25;96.56
17362;BME280;8798;51.938;4.348;2024-01-15T09:25:31;100505.84;;;3.27;96.73
17362;BME280;8798;51.938;4.348;2024-01-15T09:28:00;100511.91;;;3.29;97.22
17362;BME280;8798;51.938;4.348;2024-01-15T09:30:28;100528.44;;;3.33;96.72
17362;BME280;8798;51.938;4.348;2024-01-15T09:32:58;100530.00;;;3.35;96.95
17362;BME280;8798;51.938;4.348;2024-01-15T09:35:26;100529.16;;;3.35;97.24
17362;BME280;8798;51.938;4.348;2024-01-15T09:37:55;100510.81;;;3.32;97.17
17362;BME280;8798;51.938;4.348;2024-01-15T09:40:23;100515.38;;;3.30;96.72
17362;BME280;8798;51.938;4.348;2024-01-15T09:42:53;100500.41;;;3.29;97.14
17362;BME280;8798;51.938;4.348;2024-01-15T09:45:21;100503.81;;;3.31;97.03
17362;BME280;8798;51.938;4.348;2024-01-15T09:47:49;100501.03;;;3.32;97.07
17362;BME280;8798;51.938;4.348;2024-01-15T09:50:18;100512.50;;;3.33;96.48
17362;BME280;8798;51.938;4.348;2024-01-15T09:52:48;100537.63;;;3.40;97.14
17362;BME280;8798;51.938;4.348;2024-01-15T09:55:18;100572.31;;;3.50;97.02
17362;BME280;8798;51.938;4.348;2024-01-15T09:57:46;100622.81;;;3.61;97.26
17362;BME280;8798;51.938;4.348;2024-01-15T10:00:17;100660.16;;;3.71;97.05
17362;BME280;8798;51.938;4.348;2024-01-15T10:02:46;100675.75;;;3.75;97.44
17362;BME280;8798;51.938;4.348;2024-01-15T10:05:14;100687.03;;;3.79;96.88
17362;BME280;8798;51.938;4.348;2024-01-15T10:07:42;100638.31;;;3.67;97.15
17362;BME280;8798;51.938;4.348;2024-01-15T10:10:11;100548.66;;;3.47;96.96
17362;BME280;8798;51.938;4.348;2024-01-15T10:12:41;100482.56;;;3.31;97.17
17362;BME280;8798;51.938;4.348;2024-01-15T10:15:11;100430.41;;;3.18;96.79
17362;BME280;8798;51.938;4.348;2024-01-15T10:17:40;100404.44;;;3.11;96.84
17362;BME280;8798;51.938;4.348;2024-01-15T10:20:09;100377.53;;;3.04;97.33
17362;BME280;8798;51.938;4.348;2024-01-15T10:22:40;100353.28;;;2.97;97.15
17362;BME280;8798;51.938;4.348;2024-01-15T10:25:10;100334.81;;;2.96;96.95
17362;BME280;8798;51.938;4.348;2024-01-15T10:27:38;100339.38;;;2.94;97.28
17362;BME280;8798;51.938;4.348;2024-01-15T10:30:09;100329.66;;;2.94;96.93
17362;BME280;8798;51.938;4.348;2024-01-15T10:32:37;100344.59;;;2.95;96.92
17362;BME280;8798;51.938;4.348;2024-01-15T10:35:07;100360.16;;;3.00;96.91
17362;BME280;8798;51.938;4.348;2024-01-15T10:37:35;100386.22;;;3.06;97.29
17362;BME280;8798;51.938;4.348;2024-01-15T10:40:04;100423.53;;;3.16;97.39
17362;BME280;8798;51.938;4.348;2024-01-15T10:42:32;100442.72;;;3.19;96.49
17362;BME280;8798;51.938;4.348;2024-01-15T10:45:01;100443.56;;;3.20;97.05
17362;BME280;8798;51.938;4.348;2024-01-15T10:47:30;100436.69;;;3.17;97.13
17362;BME280;8798;51.938;4.348;2024-01-15T10:49:59;100444.41;;;3.20;97.23
17362;BME280;8798;51.938;4.348;2024-01-15T10:52:28;100440.06;;;3.19;97.36
17362;BME280;8798;51.938;4.348;2024-01-15T10:54:56;100441.75;;;3.20;97.07
17362;BME280;8798;51.938;4.348;2024-01-15T10:57:26;100449.72;;;3.20;97.53
17362;BME280;8798;51.938;4.348;2024-01-15T10:59:54;100431.25;;;3.19;96.76
17362;BME280;8798;51.938;4.348;2024-01-15T11:02:23;100451.53;;;3.20;96.93
17362;BME280;8798;51.938;4.348;2024-01-15T11:04:53;100453.00;;;3.24;96.80
17362;BME280;8798;51.938;4.348;2024-01-15T11:07:22;100474.84;;;3.28;97.08
17362;BME280;8798;51.938;4.348;2024-01-15T11:09:55;100480.88;;;3.30;96.96
17362;BME280;8798;51.938;4.348;2024-01-15T11:12:25;100481.72;;;3.30;97.16
17362;BME280;8798;51.938;4.348;2024-01-15T11:15:01;100490.28;;;3.34;96.92
17362;BME280;8798;51.938;4.348;2024-01-15T11:17:58;100508.53;;;3.38;97.27
17362;BME280;8798;51.938;4.348;2024-01-15T11:20:28;100541.78;;;3.44;97.24
17362;BME280;8798;51.938;4.348;2024-01-15T11:22:57;100547.59;;;3.49;97.18
17362;BME280;8798;51.938;4.348;2024-01-15T11:25:34;100546.72;;;3.49;97.22
17362;BME280;8798;51.938;4.348;2024-01-15T11:28:05;100549.50;;;3.47;97.19
17362;BME280;8798;51.938;4.348;2024-01-15T11:30:33;100554.47;;;3.52;97.07
17362;BME280;8798;51.938;4.348;2024-01-15T11:33:03;100571.84;;;3.56;97.24
17362;BME280;8798;51.938;4.348;2024-01-15T11:35:49;100632.03;;;3.68;97.50
17362;BME280;8798;51.938;4.348;2024-01-15T11:38:27;100700.59;;;3.87;97.53
17362;BME280;8798;51.938;4.348;2024-01-15T11:40:58;100714.38;;;3.92;97.08
17362;BME280;8798;51.938;4.348;2024-01-15T11:43:26;100678.72;;;3.83;96.63
17362;BME280;8798;51.938;4.348;2024-01-15T11:46:02;100644.88;;;3.74;97.38
17362;BME280;8798;51.938;4.348;2024-01-15T11:48:42;100603.03;;;3.65;97.15
17362;BME280;8798;51.938;4.348;2024-01-15T11:51:13;100561.22;;;3.56;97.09
17362;BME280;8798;51.938;4.348;2024-01-15T11:53:47;100526.44;;;3.48;97.08
17362;BME280;8798;51.938;4.348;2024-01-15T11:56:16;100511.59;;;3.45;97.34
17362;BME280;8798;51.938;4.348;2024-01-15T11:58:44;100492.50;;;3.40;96.69
17362;BME280;8798;51.938;4.348;2024-01-15T12:01:13;100479.47;;;3.37;96.75
17362;BME280;8798;51.938;4.348;2024-01-15T12:03:41;100475.97;;;3.36;96.88
17362;BME280;8798;51.938;4.348;2024-01-15T12:06:09;100470.78;;;3.35;97.05
17362;BME280;8798;51.938;4.348;2024-01-15T12:08:39;100463.75;;;3.34;97.17
17362;BME280;8798;51.938;4.348;2024-01-15T12:11:11;100455.09;;;3.32;97.33
17362;BME280;8798;51.938;4.348;2024-01-15T12:13:41;100441.91;;;3.30;97.31
17362;BME280;8798;51.938;4.348;2024-01-15T12:16:09;100437.69;;;3.28;96.81
17362;BME280;8798;51.938;4.348;2024-01-15T12:18:38;100434.28;;;3.26;96.77
17362;BME280;8798;51.938;4.348;2024-01-15T12:21:06;100419.44;;;3.23;96.74
17362;BME280;8798;51.938;4.348;2024-01-15T12:23:34;100415.22;;;3.20;96.76
17362;BME280;8798;51.938;4.348;2024-01-15T12:26:03;100419.69;;;3.20;96.91
17362;BME280;8798;51.938;4.348;2024-01-15T12:28:32;100439.59;;;3.26;97.18
17362;BME280;8798;51.938;4.348;2024-01-15T12:31:00;100458.44;;;3.34;97.16
17362;BME280;8798;51.938;4.348;2024-01-15T12:33:33;100521.25;;;3.46;96.90
17362;BME280;8798;51.938;4.348;2024-01-15T12:36:01;100565.47;;;3.58;96.77
17362;BME280;8798;51.938;4.348;2024-01-15T12:38:29;100630.75;;;3.74;97.22
17362;BME280;8798;51.938;4.348;2024-01-15T12:40:57;100675.00;;;3.86;97.39
17362;BME280;8798;51.938;4.348;2024-01-15T12:43:27;100708.00;;;3.95;97.27
17362;BME280;8798;51.938;4.348;2024-01-15T12:45:55;100745.47;;;4.03;97.02
17362;BME280;8798;51.938;4.348;2024-01-15T12:48:24;100774.88;;;4.13;96.99
17362;BME280;8798;51.938;4.348;2024-01-15T12:50:52;100792.31;;;4.17;96.91
17362;BME280;8798;51.938;4.348;2024-01-15T12:53:20;100805.28;;;4.21;97.47
17362;BME280;8798;51.938;4.348;2024-01-15T12:55:48;100774.56;;;4.17;97.00
17362;BME280;8798;51.938;4.348;2024-01-15T12:58:16;100752.19;;;4.08;97.31
17362;BME280;8798;51.938;4.348;2024-01-15T13:00:48;100706.81;;;3.99;97.15
17362;BME280;8798;51.938;4.348;2024-01-15T13:03:16;100680.69;;;3.93;96.93
17362;BME280;8798;51.938;4.348;2024-01-15T13:05:45;100672.84;;;3.91;97.15
17362;BME280;8798;51.938;4.348;2024-01-15T13:08:13;100686.63;;;3.96;97.67
17362;BME280;8798;51.938;4.348;2024-01-15T13:10:41;100716.25;;;4.03;97.15
17362;BME280;8798;51.938;4.348;2024-01-15T13:13:09;100737.91;;;4.09;97.00
17362;BME280;8798;51.938;4.348;2024-01-15T13:15:37;100740.47;;;4.11;97.22
17362;BME280;8798;51.938;4.348;2024-01-15T13:18:07;100724.00;;;4.06;97.14
17362;BME280;8798;51.938;4.348;2024-01-15T13:20:36;100700.44;;;4.01;96.65